sensor_id;sensor_type;location;lat;lon;timestamp;pressure;altitude;pressure_sealevel;temperature;humidity
72707;BME280;62517;62.630;17.936;2022-09-03T07:16:15;102656.60;;;19.09;37.03
72707;BME280;62517;62.630;17.936;2022-09-03T07:18:46;102660.10;;;19.16;36.81
72707;BME280;62517;62.630;17.936;2022-09-03T07:21:16;102655.45;;;19.19;36.65
72707;BME280;62517;62.630;17.936;2022-09-03T07:23:44;102656.49;;;19.25;36.54
72707;BME280;62517;62.630;17.936;2022-09-03T07:26:16;102654.54;;;19.17;36.38
72707;BME280;62517;62.630;17.936;2022-09-03T07:28:46;102654.96;;;19.34;36.24
72707;BME280;62517;62.630;17.936;2022-09-03T07:31:18;102654.22;;;19.44;36.08
72707;BME280;62517;62.630;17.936;2022-09-03T07:33:47;102653.85;;;19.69;35.91
72707;BME280;62517;62.630;17.936;2022-09-03T07:36:16;102650.05;;;20.04;35.78
72707;BME280;62517;62.630;17.936;2022-09-03T07:38:45;102654.89;;;20.29;35.26
72707;BME280;62517;62.630;17.936;2022-09-03T07:41:14;102653.25;;;20.62;35.18
72707;BME280;62517;62.630;17.936;2022-09-03T07:43:45;102658.35;;;20.92;34.91
72707;BME280;62517;62.630;17.936;2022-09-03T07:46:13;102661.11;;;21.25;34.56
72707;BME280;62517;62.630;17.936;2022-09-03T07:48:45;102660.79;;;21.39;34.48
72707;BME280;62517;62.630;17.936;2022-09-03T07:51:14;102660.20;;;21.62;34.22
72707;BME280;62517;62.630;17.936;2022-09-03T07:53:43;102658.41;;;21.86;34.17
72707;BME280;62517;62.630;17.936;2022-09-03T07:56:13;102660.57;;;22.21;33.94
72707;BME280;62517;62.630;17.936;2022-09-03T07:58:43;102650.89;;;22.33;33.46
72707;BME280;62517;62.630;17.936;2022-09-03T08:01:15;102657.98;;;22.58;33.54
72707;BME280;62517;62.630;17.936;2022-09-03T08:03:47;102661.48;;;22.68;33.46
72707;BME280;62517;62.630;17.936;2022-09-03T08:06:17;102659.69;;;22.86;32.97
72707;BME280;62517;62.630;17.936;2022-09-03T08:08:46;102667.48;;;22.95;32.91
72707;BME280;62517;62.630;17.936;2022-09-03T08:11:17;102663.87;;;23.03;32.92
72707;BME280;62517;62.630;17.936;2022-09-03T08:13:48;102665.06;;;23.30;32.54
72707;BME280;62517;62.630;17.936;2022-09-03T08:16:20;102667.12;;;23.43;32.56
72707;BME280;62517;62.630;17.936;2022-09-03T08:18:48;102667.53;;;23.68;32.35
72707;BME280;62517;62.630;17.936;2022-09-03T08:21:17;102664.36;;;23.49;32.22
72707;BME280;62517;62.630;17.936;2022-09-03T08:23:47;102667.72;;;23.73;32.12
72707;BME280;62517;62.630;17.936;2022-09-03T08:26:18;102672.53;;;23.78;32.13
72707;BME280;62517;62.630;17.936;2022-09-03T08:28:46;102670.99;;;23.78;31.99
72707;BME280;62517;62.630;17.936;2022-09-03T08:31:18;102671.15;;;23.96;31.85
72707;BME280;62517;62.630;17.936;2022-09-03T08:33:49;102672.22;;;24.06;31.23
72707;BME280;62517;62.630;17.936;2022-09-03T08:36:20;102675.56;;;24.17;31.57
72707;BME280;62517;62.630;17.936;2022-09-03T08:38:49;102670.38;;;24.21;31.45
72707;BME280;62517;62.630;17.936;2022-09-03T08:41:20;102673.74;;;24.33;30.82
72707;BME280;62517;62.630;17.936;2022-09-03T08:44:07;102672.04;;;24.35;30.90
72707;BME280;62517;62.630;17.936;2022-09-03T08:46:46;102674.55;;;24.42;31.03
72707;BME280;62517;62.630;17.936;2022-09-03T08:49:20;102676.88;;;24.55;30.84
72707;BME280;62517;62.630;17.936;2022-09-03T08:51:50;102674.99;;;24.58;30.77
72707;BME280;62517;62.630;17.936;2022-09-03T08:54:25;102678.32;;;24.69;30.83
72707;BME280;62517;62.630;17.936;2022-09-03T08:56:59;102677.03;;;24.60;30.75
72707;BME280;62517;62.630;17.936;2022-09-03T08:59:29;102673.41;;;24.73;30.47
72707;BME280;62517;62.630;17.936;2022-09-03T09:02:04;102674.45;;;24.72;30.41
72707;BME280;62517;62.630;17.936;2022-09-03T09:04:46;102672.01;;;24.67;30.57
72707;BME280;62517;62.630;17.936;2022-09-03T09:07:23;102671.81;;;24.78;30.41
72707;BME280;62517;62.630;17.936;2022-09-03T09:10:00;102676.92;;;24.92;29.86
72707;BME280;62517;62.630;17.936;2022-09-03T09:12:36;102675.92;;;24.91;30.33
72707;BME280;62517;62.630;17.936;2022-09-03T09:15:12;102676.71;;;24.83;29.80
72707;BME280;62517;62.630;17.936;2022-09-03T09:17:55;102673.96;;;25.09;30.16
72707;BME280;62517;62.630;17.936;2022-09-03T09:20:32;102676.42;;;25.10;30.15
72707;BME280;62517;62.630;17.936;2022-09-03T09:23:04;102676.35;;;25.17;29.61
72707;BME280;62517;62.630;17.936;2022-09-03T09:25:42;102675.94;;;25.08;29.69
72707;BME280;62517;62.630;17.936;2022-09-03T09:28:17;102677.85;;;25.12;29.67
72707;BME280;62517;62.630;17.936;2022-09-03T09:30:48;102674.92;;;25.28;29.69
72707;BME280;62517;62.630;17.936;2022-09-03T09:33:19;102676.87;;;25.25;29.73
72707;BME280;62517;62.630;17.936;2022-09-03T09:35:48;102672.34;;;25.22;29.79
72707;BME280;62517;62.630;17.936;2022-09-03T09:38:27;102671.46;;;25.35;29.33
72707;BME280;62517;62.630;17.936;2022-09-03T09:40:55;102671.46;;;25.31;29.36
72707;BME280;62517;62.630;17.936;2022-09-03T09:43:36;102668.27;;;25.44;29.14
72707;BME280;62517;62.630;17.936;2022-09-03T09:46:09;102666.33;;;25.49;29.39
72707;BME280;62517;62.630;17.936;2022-09-03T09:48:47;102666.61;;;25.28;29.30
72707;BME280;62517;62.630;17.936;2022-09-03T09:51:19;102665.40;;;25.44;29.16
72707;BME280;62517;62.630;17.936;2022-09-03T09:53:58;102670.58;;;25.59;29.32
72707;BME280;62517;62.630;17.936;2022-09-03T09:56:28;102676.20;;;25.49;29.33
72707;BME280;62517;62.630;17.936;2022-09-03T09:59:02;102674.26;;;25.50;29.49
72707;BME280;62517;62.630;17.936;2022-09-03T10:03:26;102668.31;;;25.48;29.16
72707;BME280;62517;62.630;17.936;2022-09-03T10:06:01;102667.99;;;25.50;29.18
72707;BME280;62517;62.630;17.936;2022-09-03T10:08:30;102667.02;;;25.46;29.00
72707;BME280;62517;62.630;17.936;2022-09-03T10:10:58;102665.11;;;25.56;29.24
72707;BME280;62517;62.630;17.936;2022-09-03T10:13:29;102666.67;;;25.66;28.98
72707;BME280;62517;62.630;17.936;2022-09-03T10:16:07;102671.07;;;25.48;29.26
72707;BME280;62517;62.630;17.936;2022-09-03T10:18:43;102670.35;;;25.70;28.72
72707;BME280;62517;62.630;17.936;2022-09-03T10:21:16;102668.50;;;25.65;28.79
72707;BME280;62517;62.630;17.936;2022-09-03T10:23:50;102666.89;;;25.67;29.05
72707;BME280;62517;62.630;17.936;2022-09-03T10:26:22;102666.56;;;25.66;29.06
72707;BME280;62517;62.630;17.936;2022-09-03T10:28:52;102667.88;;;25.67;29.06
72707;BME280;62517;62.630;17.936;2022-09-03T10:31:35;102669.82;;;25.75;28.94
72707;BME280;62517;62.630;17.936;2022-09-03T10:34:11;102670.18;;;25.73;29.09
72707;BME280;62517;62.630;17.936;2022-09-03T10:36:50;102672.28;;;25.82;28.97
72707;BME280;62517;62.630;17.936;2022-09-03T10:39:28;102672.81;;;25.80;28.52
72707;BME280;62517;62.630;17.936;2022-09-03T10:42:14;102669.90;;;25.84;28.94
72707;BME280;62517;62.630;17.936;2022-09-03T10:44:57;102669.02;;;25.79;28.95
72707;BME280;62517;62.630;17.936;2022-09-03T10:47:40;102670.48;;;25.78;28.82
72707;BME280;62517;62.630;17.936;2022-09-03T10:50:18;102667.46;;;25.73;28.87
72707;BME280;62517;62.630;17.936;2022-09-03T10:53:03;102668.27;;;25.93;28.75
72707;BME280;62517;62.630;17.936;2022-09-03T10:55:41;102668.69;;;25.79;28.70
72707;BME280;62517;62.630;17.936;2022-09-03T10:58:28;102672.94;;;25.77;28.71
72707;BME280;62517;62.630;17.936;2022-09-03T11:01:02;102674.36;;;25.78;28.59
72707;BME280;62517;62.630;17.936;2022-09-03T11:03:42;102675.83;;;25.94;28.97
72707;BME280;62517;62.630;17.936;2022-09-03T11:06:17;102675.33;;;25.89;28.52
72707;BME280;62517;62.630;17.936;2022-09-03T11:08:53;102677.55;;;25.79;28.98
72707;BME280;62517;62.630;17.936;2022-09-03T11:11:30;102677.32;;;25.95;28.76
72707;BME280;62517;62.630;17.936;2022-09-03T11:14:06;102679.91;;;25.91;28.89
72707;BME280;62517;62.630;17.936;2022-09-03T11:16:38;102681.29;;;25.98;28.39
72707;BME280;62517;62.630;17.936;2022-09-03T11:19:12;102681.99;;;25.98;28.60
72707;BME280;62517;62.630;17.936;2022-09-03T11:21:44;102682.48;;;25.97;28.49
72707;BME280;62517;62.630;17.936;2022-09-03T11:24:16;102682.30;;;25.85;28.84
72707;BME280;62517;62.630;17.936;2022-09-03T11:26:51;102678.72;;;25.82;28.62
72707;BME280;62517;62.630;17.936;2022-09-03T11:29:30;102680.03;;;25.95;28.68
72707;BME280;62517;62.630;17.936;2022-09-03T11:32:03;102675.21;;;25.95;28.79
72707;BME280;62517;62.630;17.936;2022-09-03T11:34:45;102675.57;;;25.95;28.29
72707;BME280;62517;62.630;17.936;2022-09-03T11:37:17;102672.79;;;25.83;28.27
72707;BME280;62517;62.630;17.936;2022-09-03T11:39:57;102672.94;;;26.06;28.75
72707;BME280;62517;62.630;17.936;2022-09-03T11:42:30;102678.45;;;26.03;28.70
72707;BME280;62517;62.630;17.936;2022-09-03T11:45:12;102682.14;;;25.98;28.66
72707;BME280;62517;62.630;17.936;2022-09-03T11:47:42;102680.45;;;25.91;28.54
72707;BME280;62517;62.630;17.936;2022-09-03T11:50:19;102685.17;;;26.09;28.62
72707;BME280;62517;62.630;17.936;2022-09-03T11:52:48;102685.22;;;25.91;28.39
72707;BME280;62517;62.630;17.936;2022-09-03T11:55:26;102686.81;;;25.90;28.37
72707;BME280;62517;62.630;17.936;2022-09-03T11:57:56;102688.11;;;25.89;28.24
72707;BME280;62517;62.630;17.936;2022-09-03T12:00:24;102689.55;;;25.86;28.36
72707;BME280;62517;62.630;17.936;2022-09-03T12:02:56;102685.67;;;25.95;28.44
72707;BME280;62517;62.630;17.936;2022-09-03T12:05:32;102685.69;;;25.93;28.59
72707;BME280;62517;62.630;17.936;2022-09-03T12:08:49;102686.96;;;25.84;28.62
72707;BME280;62517;62.630;17.936;2022-09-03T12:11:36;102685.62;;;25.96;28.57
72707;BME280;62517;62.630;17.936;2022-09-03T12:14:12;102681.93;;;25.93;28.29
72707;BME280;62517;62.630;17.936;2022-09-03T12:17:22;102682.16;;;25.98;28.58
72707;BME280;62517;62.630;17.936;2022-09-03T12:19:57;102681.51;;;25.99;28.39
72707;BME280;62517;62.630;17.936;2022-09-03T12:22:28;102681.17;;;26.05;28.56
72707;BME280;62517;62.630;17.936;2022-09-03T12:25:07;102680.64;;;25.98;28.57
72707;BME280;62517;62.630;17.936;2022-09-03T12:27:36;102683.91;;;25.97;28.55
72707;BME280;62517;62.630;17.936;2022-09-03T12:30:13;102683.93;;;25.93;28.59
72707;BME280;62517;62.630;17.936;2022-09-03T12:32:44;102687.25;;;26.07;28.41
72707;BME280;62517;62.630;17.936;2022-09-03T12:35:15;102685.37;;;25.89;28.51
72707;BME280;62517;62.630;17.936;2022-09-03T12:37:45;102686.26;;;25.99;28.55
72707;BME280;62517;62.630;17.936;2022-09-03T12:40:18;102684.04;;;25.92;28.49
72707;BME280;62517;62.630;17.936;2022-09-03T12:42:48;102683.39;;;25.90;28.52
72707;BME280;62517;62.630;17.936;2022-09-03T12:45:20;102683.00;;;25.93;28.34
72707;BME280;62517;62.630;17.936;2022-09-03T12:47:48;102682.36;;;26.00;28.50
72707;BME280;62517;62.630;17.936;2022-09-03T12:50:20;102683.72;;;25.87;28.44
72707;BME280;62517;62.630;17.936;2022-09-03T12:52:53;102682.09;;;25.83;28.47
72707;BME280;62517;62.630;17.936;2022-09-03T12:55:28;102681.83;;;26.11;28.45
72707;BME280;62517;62.630;17.936;2022-09-03T12:58:02;102680.92;;;26.01;28.31
72707;BME280;62517;62.630;17.936;2022-09-03T13:00:36;102681.87;;;26.02;28.35
72707;BME280;62517;62.630;17.936;2022-09-03T13:03:07;102680.19;;;25.99;28.34
72707;BME280;62517;62.630;17.936;2022-09-03T13:05:41;102679.48;;;26.02;28.27
72707;BME280;62517;62.630;17.936;2022-09-03T13:08:14;102680.83;;;25.93;28.46
72707;BME280;62517;62.630;17.936;2022-09-03T13:10:50;102677.97;;;25.95;28.30
72707;BME280;62517;62.630;17.936;2022-09-03T13:13:23;102676.01;;;25.89;28.47
72707;BME280;62517;62.630;17.936;2022-09-03T13:16:11;102675.20;;;26.03;28.44
72707;BME280;62517;62.630;17.936;2022-09-03T13:18:47;102673.74;;;26.08;28.43
72707;BME280;62517;62.630;17.936;2022-09-03T13:21:31;102674.34;;;25.92;28.42
72707;BME280;62517;62.630;17.936;2022-09-03T13:24:16;102673.85;;;25.97;28.39
72707;BME280;62517;62.630;17.936;2022-09-03T13:26:54;102673.44;;;26.02;28.33
72707;BME280;62517;62.630;17.936;2022-09-03T13:29:38;102669.75;;;26.04;28.39
72707;BME280;62517;62.630;17.936;2022-09-03T13:32:20;102669.13;;;26.03;28.08
72707;BME280;62517;62.630;17.936;2022-09-03T13:34:56;102669.56;;;25.97;28.31
72707;BME280;62517;62.630;17.936;2022-09-03T13:37:34;102669.20;;;26.03;28.37
72707;BME280;62517;62.630;17.936;2022-09-03T13:40:12;102668.63;;;26.08;28.34
72707;BME280;62517;62.630;17.936;2022-09-03T13:42:46;102669.09;;;26.13;28.22
72707;BME280;62517;62.630;17.936;2022-09-03T13:45:26;102669.17;;;26.07;27.92
72707;BME280;62517;62.630;17.936;2022-09-03T13:48:02;102671.83;;;26.17;28.20
72707;BME280;62517;62.630;17.936;2022-09-03T13:50:41;102674.97;;;25.97;28.36
72707;BME280;62517;62.630;17.936;2022-09-03T13:53:18;102673.40;;;26.08;27.96
